createdAt,value
2019-01-04T00:00:00.851Z,7.4
2019-01-04T00:05:00.902Z,7.6
2019-01-04T00:10:00.812Z,8.6
2019-01-04T00:15:00.814Z,8.9
2019-01-04T00:20:00.816Z,8.7
2019-01-04T00:25:00.853Z,8.4
2019-01-04T00:30:00.854Z,8.0
2019-01-04T00:35:00.845Z,6.5
2019-01-04T00:40:00.977Z,5.6
2019-01-04T00:45:00.822Z,5.2
2019-01-04T00:50:00.848Z,4.4
2019-01-04T00:55:00.878Z,4.5
2019-01-04T01:00:00.840Z,4.8
2019-01-04T01:10:06.006Z,3.6
2019-01-04T01:15:00.992Z,3.3
2019-01-04T01:20:01.069Z,3.2
2019-01-04T01:30:00.346Z,7.0
2019-01-04T01:35:00.426Z,5.5
2019-01-04T01:40:00.793Z,4.7
2019-01-04T01:50:00.529Z,4.0
2019-01-04T01:55:00.522Z,3.8
2019-01-04T02:00:00.525Z,3.9
2019-01-04T02:05:00.790Z,4.1
2019-01-04T02:15:01.531Z,4.2
2019-01-04T02:20:00.524Z,3.8
2019-01-04T02:25:00.602Z,3.6
2019-01-04T02:30:00.673Z,3.8
2019-01-04T02:35:00.608Z,4.8
2019-01-04T02:40:00.541Z,4.7
2019-01-04T02:45:00.673Z,6.2
2019-01-04T02:50:00.557Z,6.3
2019-01-04T02:55:00.636Z,5.7
2019-01-04T03:00:05.556Z,4.6
2019-01-04T03:10:00.614Z,3.5
2019-01-04T03:15:00.676Z,3.3
2019-01-04T03:25:00.617Z,3.6
2019-01-04T03:30:00.748Z,3.4
2019-01-04T03:45:00.565Z,3.5
2019-01-04T03:50:00.550Z,3.7
2019-01-04T04:00:00.699Z,3.7
2019-01-04T04:05:05.646Z,4.2
2019-01-04T04:10:00.597Z,4.3
2019-01-04T04:15:05.567Z,3.7
2019-01-04T04:20:00.604Z,3.8
2019-01-04T04:25:10.713Z,4.0
2019-01-04T04:30:05.572Z,3.5
2019-01-04T04:35:00.631Z,4.0
2019-01-04T04:45:05.579Z,4.0
2019-01-04T04:50:00.574Z,3.7
2019-01-04T05:00:05.640Z,3.0
2019-01-04T05:15:00.585Z,3.0
2019-01-04T05:20:00.582Z,2.9
2019-01-04T05:30:00.744Z,3.5
2019-01-04T05:35:00.650Z,3.7
2019-01-04T05:45:00.588Z,3.5
2019-01-04T05:55:00.668Z,3.0
2019-01-04T06:00:00.598Z,2.9
2019-01-04T06:10:00.731Z,3.4
2019-01-04T06:15:05.669Z,3.4
2019-01-04T06:20:00.600Z,3.6
2019-01-04T06:25:00.732Z,3.8
2019-01-04T06:30:00.601Z,5.6
2019-01-04T06:35:00.600Z,5.9
2019-01-04T06:40:00.918Z,6.2
2019-01-04T06:45:02.202Z,5.9
2019-01-04T06:55:00.685Z,4.8
2019-01-04T07:10:06.046Z,4.0
2019-01-04T07:15:05.973Z,4.0
2019-01-04T07:20:00.972Z,4.5
2019-01-04T07:25:01.044Z,5.2
2019-01-04T07:30:00.915Z,5.9
2019-01-04T07:35:00.980Z,6.5
2019-01-04T07:40:00.947Z,6.9
2019-01-04T07:45:01.081Z,7.1
2019-01-04T07:50:00.956Z,7.8
2019-01-04T07:55:01.007Z,7.6
2019-01-04T08:00:00.922Z,8.0
2019-01-04T08:05:01.027Z,8.2
2019-01-04T08:10:01.081Z,8.9
2019-01-04T08:15:00.996Z,9.8
2019-01-04T08:20:00.926Z,10.9
2019-01-04T08:25:01.057Z,10.1
2019-01-04T08:30:05.946Z,11.4
2019-01-04T08:35:00.997Z,11.8
2019-01-04T08:40:00.925Z,12.9
2019-01-04T08:45:06.013Z,14.0
2019-01-04T08:50:00.960Z,15.6
2019-01-04T08:55:01.061Z,15.2
2019-01-04T09:00:00.938Z,15.6
2019-01-04T09:05:00.935Z,14.7
2019-01-04T09:10:00.952Z,14.1
2019-01-04T09:15:01.001Z,13.2
2019-01-04T09:20:00.934Z,12.5
2019-01-04T09:25:01.006Z,12.3
2019-01-04T09:30:00.971Z,11.8
2019-01-04T09:35:01.069Z,10.4
2019-01-04T09:45:00.944Z,10.0
2019-01-04T09:50:00.940Z,9.0
2019-01-04T09:55:01.008Z,8.2
2019-01-04T10:00:00.945Z,7.7
2019-01-04T10:10:01.010Z,7.3
2019-01-04T10:15:01.010Z,8.1
2019-01-04T10:20:00.970Z,7.6
2019-01-04T10:30:01.013Z,7.6
2019-01-04T10:35:01.081Z,8.0
2019-01-04T10:40:00.947Z,7.2
2019-01-04T10:45:01.016Z,7.0
2019-01-04T10:50:00.955Z,7.4
2019-01-04T10:55:01.025Z,6.6
2019-01-04T11:00:00.952Z,6.2
2019-01-04T11:05:01.082Z,5.6
2019-01-04T11:10:00.959Z,7.0
2019-01-04T11:15:02.119Z,6.7
2019-01-04T11:20:00.953Z,7.7
2019-01-04T11:25:00.954Z,8.2
2019-01-04T11:40:00.833Z,7.0
2019-01-04T12:00:01.052Z,6.6
2019-01-04T12:05:01.100Z,6.9
2019-01-04T12:10:01.036Z,6.4
2019-01-04T12:15:01.032Z,5.9
2019-01-04T12:20:01.040Z,6.1
2019-01-04T12:25:01.170Z,5.6
2019-01-04T12:30:01.041Z,4.9
2019-01-04T12:35:01.048Z,4.8
2019-01-04T12:40:01.052Z,5.0
2019-01-04T12:45:01.179Z,5.6
2019-01-04T12:50:01.053Z,6.0
2019-01-04T12:55:01.181Z,6.6
2019-01-04T13:00:01.053Z,7.0
2019-01-04T13:05:01.109Z,7.6
2019-01-04T13:10:01.056Z,7.2
2019-01-04T13:15:01.059Z,7.6
2019-01-04T13:20:01.061Z,8.4
2019-01-04T13:25:01.049Z,10.3
2019-01-04T13:30:01.051Z,10.2
2019-01-04T13:35:01.116Z,10.3
2019-01-04T13:40:01.059Z,9.5
2019-01-04T13:45:01.068Z,9.8
2019-01-04T13:50:01.060Z,9.2
2019-01-04T13:55:01.113Z,10.1
2019-01-04T14:00:01.064Z,10.4
2019-01-04T14:05:01.077Z,10.6
2019-01-04T14:10:01.076Z,9.3
2019-01-04T14:15:01.143Z,7.3
2019-01-04T14:20:01.108Z,6.8
2019-01-04T14:25:01.076Z,8.0
2019-01-04T14:30:01.075Z,8.6
2019-01-04T14:35:01.083Z,9.0
2019-01-04T14:40:01.085Z,10.4
2019-01-04T14:45:01.156Z,10.2
2019-01-04T14:50:01.079Z,8.5
2019-01-04T14:55:01.122Z,7.8
2019-01-04T15:00:06.126Z,8.0
2019-01-04T15:05:02.001Z,6.8
2019-01-04T15:10:01.091Z,6.0
2019-01-04T15:15:01.158Z,5.4
2019-01-04T15:20:01.092Z,5.2
2019-01-04T15:25:01.226Z,5.6
2019-01-04T15:30:01.783Z,5.4
2019-01-04T15:35:01.157Z,5.6
2019-01-04T15:45:01.160Z,5.8
2019-01-04T15:50:01.093Z,5.2
2019-01-04T16:00:01.161Z,5.4
2019-01-04T16:05:01.103Z,5.6
2019-01-04T16:10:01.098Z,7.0
2019-01-04T16:15:01.174Z,7.0
2019-01-04T16:20:01.107Z,7.4
2019-01-04T16:25:01.165Z,7.5
2019-01-04T16:30:01.104Z,8.1
2019-01-04T16:35:01.235Z,7.2
2019-01-04T16:40:01.137Z,6.8
2019-01-04T16:45:01.178Z,7.0
2019-01-04T16:50:01.136Z,7.6
2019-01-04T16:55:01.180Z,7.0
2019-01-04T17:00:01.107Z,7.4
2019-01-04T17:05:01.145Z,8.6
2019-01-04T17:10:01.154Z,8.7
2019-01-04T17:15:01.223Z,8.7
2019-01-04T17:20:01.283Z,8.6
2019-01-04T17:25:01.270Z,8.3
2019-01-04T17:30:01.118Z,8.6
2019-01-04T17:46:01.103Z,9.1
2019-01-04T17:51:01.166Z,8.4
2019-01-04T17:56:01.134Z,7.3
2019-01-04T18:01:01.234Z,7.2
2019-01-04T18:06:01.951Z,7.5
2019-01-04T18:11:01.164Z,7.3
2019-01-04T18:26:01.168Z,6.8
2019-01-04T18:31:01.244Z,5.8
2019-01-04T18:36:01.112Z,5.2
2019-01-04T18:41:01.176Z,5.3
2019-01-04T18:46:01.111Z,5.5
2019-01-04T18:51:01.114Z,5.7
2019-01-04T18:56:01.106Z,6.4
2019-01-04T19:01:00.866Z,7.6
2019-01-04T19:06:00.837Z,6.6
2019-01-04T19:11:00.909Z,6.9
2019-01-04T19:16:00.845Z,7.5
2019-01-04T19:21:00.846Z,6.9
2019-01-04T19:26:00.852Z,6.7
2019-01-04T19:31:00.982Z,7.0
2019-01-04T19:36:00.851Z,6.9
2019-01-04T19:50:00.388Z,0.0
2019-01-04T20:05:01.640Z,0.0
2019-01-04T20:15:00.982Z,0.0
2019-01-04T20:30:00.998Z,0.1
2019-01-04T20:35:00.936Z,0.2
2019-01-04T20:40:00.877Z,0.3
2019-01-04T20:45:00.916Z,0.3
2019-01-04T20:50:00.873Z,0.4
2019-01-04T21:00:01.006Z,0.4
2019-01-04T21:05:01.017Z,0.3
2019-01-04T21:10:00.879Z,0.4
2019-01-04T21:15:02.915Z,0.3
2019-01-04T21:30:00.998Z,0.2
2019-01-04T21:45:01.011Z,0.2
2019-01-04T22:00:00.980Z,0.2
2019-01-04T22:15:01.039Z,0.3
2019-01-04T22:30:01.009Z,0.3
2019-01-04T22:45:01.055Z,0.3
2019-01-04T23:00:01.020Z,0.3
2019-01-04T23:15:01.066Z,0.3
2019-01-04T23:30:00.950Z,0.3
2019-01-04T23:35:01.111Z,0.4
2019-01-04T23:45:01.078Z,0.4
